createdAt,value
2018-09-25T00:01:37.183Z,7.50
2018-09-25T00:04:11.668Z,7.40
2018-09-25T00:06:45.896Z,7.40
2018-09-25T00:09:19.931Z,7.40
2018-09-25T00:11:53.907Z,7.40
2018-09-25T00:14:27.848Z,7.40
2018-09-25T00:17:02.016Z,7.30
2018-09-25T00:19:36.389Z,7.20
2018-09-25T00:22:10.414Z,7.20
2018-09-25T00:24:44.527Z,7.20
2018-09-25T00:27:18.475Z,7.10
2018-09-25T00:29:52.549Z,7.00
2018-09-25T00:32:26.535Z,7.00
2018-09-25T00:35:00.506Z,6.90
2018-09-25T00:37:34.450Z,7.00
2018-09-25T00:40:08.598Z,6.90
2018-09-25T00:42:42.605Z,6.70
2018-09-25T00:45:16.811Z,6.60
2018-09-25T00:47:51.037Z,6.80
2018-09-25T00:50:24.996Z,7.00
2018-09-25T00:52:58.936Z,7.10
2018-09-25T00:55:33.060Z,7.00
2018-09-25T00:58:07.129Z,7.00
2018-09-25T01:00:41.251Z,7.10
2018-09-25T01:03:15.199Z,7.20
2018-09-25T01:05:49.312Z,7.20
2018-09-25T01:08:23.424Z,7.30
2018-09-25T01:10:57.434Z,7.30
2018-09-25T01:13:31.257Z,7.30
2018-09-25T01:16:05.299Z,7.30
2018-09-25T01:18:39.427Z,7.20
2018-09-25T01:21:13.605Z,7.20
2018-09-25T01:23:47.681Z,7.20
2018-09-25T01:26:21.675Z,7.20
2018-09-25T01:28:55.785Z,7.20
2018-09-25T01:31:29.662Z,7.20
2018-09-25T01:34:03.844Z,7.10
2018-09-25T01:36:37.714Z,7.20
2018-09-25T01:39:13.451Z,7.20
2018-09-25T01:41:47.424Z,7.30
2018-09-25T01:44:21.313Z,7.30
2018-09-25T01:46:56.567Z,7.30
2018-09-25T01:49:30.735Z,7.30
2018-09-25T01:52:04.832Z,7.20
2018-09-25T01:54:39.334Z,7.10
2018-09-25T01:57:13.306Z,7.20
2018-09-25T01:59:47.198Z,7.20
2018-09-25T02:02:21.055Z,7.20
2018-09-25T02:04:55.582Z,7.20
2018-09-25T02:07:29.649Z,7.10
2018-09-25T02:10:03.592Z,7.00
2018-09-25T02:12:37.622Z,7.10
2018-09-25T02:15:11.680Z,7.00
2018-09-25T02:17:45.868Z,7.00
2018-09-25T02:20:19.847Z,6.90
2018-09-25T02:22:53.936Z,6.80
2018-09-25T02:25:27.896Z,6.80
2018-09-25T02:28:02.079Z,6.70
2018-09-25T02:30:36.235Z,6.70
2018-09-25T02:33:10.612Z,6.60
2018-09-25T02:35:44.531Z,6.60
2018-09-25T02:38:18.368Z,6.60
2018-09-25T02:40:52.554Z,6.70
2018-09-25T02:43:26.462Z,6.80
2018-09-25T02:46:00.468Z,6.80
2018-09-25T02:48:38.331Z,6.80
2018-09-25T02:51:12.344Z,6.80
2018-09-25T02:53:46.695Z,6.70
2018-09-25T02:56:20.522Z,6.70
2018-09-25T02:58:54.717Z,6.60
2018-09-25T03:01:28.476Z,6.50
2018-09-25T03:04:02.587Z,6.60
2018-09-25T03:06:36.650Z,6.70
2018-09-25T03:09:13.822Z,6.70
2018-09-25T03:11:47.754Z,6.70
2018-09-25T03:14:21.670Z,6.70
2018-09-25T03:16:55.867Z,6.60
2018-09-25T03:19:30.164Z,6.60
2018-09-25T03:22:09.011Z,6.60
2018-09-25T03:24:43.134Z,6.60
2018-09-25T03:27:17.291Z,6.60
2018-09-25T03:29:51.399Z,6.40
2018-09-25T03:32:27.107Z,6.30
2018-09-25T03:35:01.267Z,6.30
2018-09-25T03:37:35.334Z,6.40
2018-09-25T03:40:09.652Z,6.50
2018-09-25T03:42:43.970Z,6.50
2018-09-25T03:45:18.130Z,6.50
2018-09-25T03:47:52.411Z,6.40
2018-09-25T03:50:28.978Z,6.40
2018-09-25T03:53:02.987Z,6.50
2018-09-25T03:55:37.019Z,6.50
2018-09-25T03:58:10.754Z,6.40
2018-09-25T04:00:44.723Z,6.40
2018-09-25T04:03:18.719Z,6.40
2018-09-25T04:05:52.838Z,6.50
2018-09-25T04:08:28.185Z,6.50
2018-09-25T04:11:01.996Z,6.50
2018-09-25T04:13:36.203Z,6.50
2018-09-25T04:16:10.636Z,6.50
2018-09-25T04:18:45.249Z,6.50
2018-09-25T04:21:19.470Z,6.50
2018-09-25T04:23:53.592Z,6.50
2018-09-25T04:26:27.945Z,6.40
2018-09-25T04:29:01.896Z,6.50
2018-09-25T04:31:35.775Z,6.40
2018-09-25T04:34:09.933Z,6.40
2018-09-25T04:36:43.855Z,6.40
2018-09-25T04:39:17.954Z,6.30
2018-09-25T04:41:52.081Z,6.30
2018-09-25T04:44:26.097Z,6.30
2018-09-25T04:46:59.988Z,6.30
2018-09-25T04:49:33.812Z,6.30
2018-09-25T04:52:07.826Z,6.40
2018-09-25T04:54:41.737Z,6.50
2018-09-25T04:57:15.583Z,6.50
2018-09-25T04:59:49.539Z,6.60
2018-09-25T05:02:23.721Z,6.60
2018-09-25T05:04:57.833Z,6.60
2018-09-25T05:07:32.089Z,6.50
2018-09-25T05:10:06.030Z,6.50
2018-09-25T05:12:44.375Z,6.40
2018-09-25T05:15:18.450Z,6.40
2018-09-25T05:17:52.628Z,6.40
2018-09-25T05:20:26.726Z,6.40
2018-09-25T05:23:02.281Z,6.50
2018-09-25T05:25:37.073Z,6.60
2018-09-25T05:28:11.744Z,6.60
2018-09-25T05:30:45.997Z,6.50
2018-09-25T05:33:19.935Z,6.50
2018-09-25T05:35:56.058Z,6.50
2018-09-25T05:38:30.097Z,6.50
2018-09-25T05:41:19.964Z,6.50
2018-09-25T05:43:54.245Z,6.50
2018-09-25T05:46:28.371Z,6.60
2018-09-25T05:49:02.364Z,6.60
2018-09-25T05:51:36.416Z,6.60
2018-09-25T05:54:10.905Z,6.60
2018-09-25T05:56:44.808Z,6.60
2018-09-25T05:59:18.836Z,6.60
2018-09-25T06:01:52.656Z,6.60
2018-09-25T06:04:26.608Z,6.60
2018-09-25T06:07:00.761Z,6.60
2018-09-25T06:09:34.811Z,6.70
2018-09-25T06:12:08.733Z,6.70
2018-09-25T06:14:42.764Z,6.80
2018-09-25T06:17:17.008Z,6.70
2018-09-25T06:19:51.007Z,6.70
2018-09-25T06:22:24.913Z,6.70
2018-09-25T06:24:58.860Z,6.70
2018-09-25T06:27:32.901Z,6.70
2018-09-25T06:30:07.064Z,6.70
2018-09-25T06:32:41.112Z,6.60
2018-09-25T06:35:15.120Z,6.70
2018-09-25T06:37:49.016Z,6.70
2018-09-25T06:40:22.997Z,6.80
2018-09-25T06:42:57.122Z,6.90
2018-09-25T06:45:31.134Z,7.00
2018-09-25T06:48:05.032Z,7.00
2018-09-25T06:50:38.991Z,7.30
2018-09-25T06:53:12.860Z,7.80
2018-09-25T06:55:46.872Z,8.20
2018-09-25T06:58:21.344Z,8.40
2018-09-25T07:00:55.471Z,8.50
2018-09-25T07:03:29.360Z,8.80
2018-09-25T07:06:03.342Z,9.10
2018-09-25T07:08:39.701Z,9.20
2018-09-25T07:11:13.631Z,9.10
2018-09-25T07:13:47.546Z,9.10
2018-09-25T07:16:21.478Z,9.60
2018-09-25T07:18:55.751Z,10.00
2018-09-25T07:21:30.056Z,10.30
2018-09-25T07:24:04.182Z,10.40
2018-09-25T07:26:38.191Z,10.50
2018-09-25T07:29:12.607Z,10.60
2018-09-25T07:31:46.681Z,10.70
2018-09-25T07:34:20.730Z,10.90
2018-09-25T07:36:54.766Z,11.10
2018-09-25T07:39:28.682Z,11.30
2018-09-25T07:42:02.865Z,11.30
2018-09-25T07:44:36.980Z,11.30
2018-09-25T07:47:11.037Z,11.50
2018-09-25T07:49:45.211Z,11.60
2018-09-25T07:52:19.088Z,11.60
2018-09-25T07:54:53.004Z,11.50
2018-09-25T07:57:27.055Z,11.50
2018-09-25T08:00:00.942Z,11.80
2018-09-25T08:02:34.980Z,12.00
2018-09-25T08:05:09.164Z,12.20
2018-09-25T08:07:43.181Z,12.30
2018-09-25T08:10:17.314Z,12.60
2018-09-25T08:12:51.322Z,12.80
2018-09-25T08:15:25.439Z,13.00
2018-09-25T08:17:59.524Z,13.30
2018-09-25T08:20:33.659Z,13.50
2018-09-25T08:23:07.813Z,13.50
2018-09-25T08:25:41.991Z,13.60
2018-09-25T08:28:15.840Z,13.80
2018-09-25T08:30:50.916Z,14.00
2018-09-25T08:33:25.243Z,13.80
2018-09-25T08:35:59.208Z,13.90
2018-09-25T08:38:33.283Z,14.10
2018-09-25T08:41:07.281Z,14.00
2018-09-25T08:43:41.239Z,14.10
2018-09-25T08:46:15.278Z,13.90
2018-09-25T08:48:49.287Z,13.50
2018-09-25T08:51:23.239Z,13.10
2018-09-25T08:53:57.348Z,12.80
2018-09-25T08:56:31.499Z,13.10
2018-09-25T08:59:05.570Z,13.20
2018-09-25T09:01:39.643Z,13.90
2018-09-25T09:04:13.889Z,14.20
2018-09-25T09:06:47.909Z,14.20
2018-09-25T09:09:21.878Z,14.60
2018-09-25T09:11:56.102Z,15.20
2018-09-25T09:14:30.155Z,15.40
2018-09-25T09:17:04.159Z,15.40
2018-09-25T09:19:38.123Z,15.10
2018-09-25T09:22:12.494Z,15.10
2018-09-25T09:24:46.584Z,15.50
2018-09-25T09:27:20.747Z,15.90
2018-09-25T09:29:54.607Z,15.80
2018-09-25T09:32:28.865Z,15.80
2018-09-25T09:35:02.864Z,15.90
2018-09-25T09:37:37.042Z,16.20
2018-09-25T09:40:14.666Z,16.40
2018-09-25T09:42:48.684Z,16.60
2018-09-25T09:45:22.692Z,16.50
2018-09-25T09:47:56.627Z,16.60
2018-09-25T09:50:30.812Z,16.60
2018-09-25T09:53:04.827Z,16.70
2018-09-25T09:55:39.029Z,16.70
2018-09-25T09:58:13.042Z,16.50
2018-09-25T10:00:47.139Z,16.70
2018-09-25T10:03:21.075Z,17.00
2018-09-25T10:05:55.428Z,17.30
2018-09-25T10:08:29.651Z,17.50
2018-09-25T10:11:03.807Z,17.60
2018-09-25T10:13:37.915Z,17.90
2018-09-25T10:16:11.939Z,17.90
2018-09-25T10:18:46.201Z,17.80
2018-09-25T10:21:20.372Z,17.90
2018-09-25T10:23:54.278Z,18.20
2018-09-25T10:26:28.356Z,18.50
2018-09-25T10:29:02.201Z,18.60
2018-09-25T10:31:36.404Z,18.90
2018-09-25T10:34:10.341Z,18.50
2018-09-25T10:36:44.694Z,18.60
2018-09-25T10:39:18.629Z,19.10
2018-09-25T10:41:52.588Z,19.10
2018-09-25T10:44:26.693Z,19.60
2018-09-25T10:47:00.998Z,19.50
2018-09-25T10:49:35.069Z,19.30
2018-09-25T10:52:09.225Z,19.10
2018-09-25T10:54:43.044Z,19.50
2018-09-25T10:57:17.146Z,20.00
2018-09-25T10:59:50.988Z,19.80
2018-09-25T11:02:24.998Z,20.10
2018-09-25T11:04:59.181Z,20.60
2018-09-25T11:07:36.792Z,20.50
2018-09-25T11:10:11.153Z,20.90
2018-09-25T11:12:45.042Z,20.90
2018-09-25T11:15:18.928Z,20.80
2018-09-25T11:17:53.127Z,21.10
2018-09-25T11:20:27.187Z,21.80
2018-09-25T11:23:01.190Z,22.10
2018-09-25T11:25:35.256Z,22.30
2018-09-25T11:28:09.299Z,21.80
2018-09-25T11:30:43.403Z,22.30
2018-09-25T11:33:17.465Z,22.00
2018-09-25T11:35:51.519Z,22.00
2018-09-25T11:38:25.579Z,22.10
2018-09-25T11:41:00.142Z,22.20
2018-09-25T11:43:34.273Z,21.70
2018-09-25T11:46:08.995Z,21.60
2018-09-25T11:51:49.273Z,22.00
2018-09-25T11:54:23.282Z,22.20
2018-09-25T11:56:57.258Z,21.60
2018-09-25T11:59:31.239Z,22.20
2018-09-25T12:02:05.371Z,22.40
2018-09-25T12:04:39.555Z,22.50
2018-09-25T12:07:13.533Z,22.80
2018-09-25T12:09:47.579Z,22.70
2018-09-25T12:12:21.786Z,22.60
2018-09-25T12:14:55.939Z,22.60
2018-09-25T12:17:30.264Z,22.10
2018-09-25T12:20:04.304Z,21.80
2018-09-25T12:22:38.478Z,21.90
2018-09-25T12:25:12.760Z,21.90
2018-09-25T12:27:46.768Z,21.70
2018-09-25T12:30:20.865Z,21.60
2018-09-25T12:32:55.218Z,21.70
2018-09-25T12:35:29.361Z,21.60
2018-09-25T12:38:03.523Z,21.60
2018-09-25T12:40:37.944Z,21.50
2018-09-25T12:43:12.061Z,21.40
2018-09-25T12:45:46.274Z,21.40
2018-09-25T12:48:20.371Z,20.80
2018-09-25T12:50:54.245Z,20.70
2018-09-25T12:53:28.180Z,20.90
2018-09-25T12:56:02.255Z,21.10
2018-09-25T12:58:36.349Z,20.40
2018-09-25T13:01:10.650Z,20.50
2018-09-25T13:03:44.581Z,20.90
2018-09-25T13:06:18.572Z,21.30
2018-09-25T13:08:52.515Z,21.30
2018-09-25T13:11:26.902Z,21.00
2018-09-25T13:14:00.739Z,20.90
2018-09-25T13:16:34.820Z,20.50
2018-09-25T13:19:09.240Z,20.10
2018-09-25T13:21:43.139Z,21.40
2018-09-25T13:24:17.381Z,21.60
2018-09-25T13:26:51.497Z,22.10
2018-09-25T13:29:25.720Z,22.90
2018-09-25T13:31:59.749Z,22.90
2018-09-25T13:34:33.709Z,23.00
2018-09-25T13:37:19.613Z,23.70
2018-09-25T13:39:53.752Z,23.90
2018-09-25T13:42:27.971Z,24.00
2018-09-25T13:45:02.292Z,23.60
2018-09-25T13:47:36.496Z,23.90
2018-09-25T13:50:10.655Z,23.00
2018-09-25T13:52:44.925Z,23.60
2018-09-25T13:55:19.241Z,23.90
2018-09-25T13:57:58.100Z,24.70
2018-09-25T14:00:32.808Z,24.70
2018-09-25T14:03:06.820Z,24.50
2018-09-25T14:05:41.012Z,24.30
2018-09-25T14:08:15.226Z,24.70
2018-09-25T14:10:49.374Z,24.70
2018-09-25T14:13:23.777Z,24.60
2018-09-25T14:15:57.966Z,24.70
2018-09-25T14:18:44.294Z,24.60
2018-09-25T14:21:18.362Z,24.90
2018-09-25T14:23:52.469Z,25.30
2018-09-25T14:26:26.412Z,25.20
2018-09-25T14:29:00.203Z,25.40
2018-09-25T14:31:34.185Z,25.30
2018-09-25T14:34:08.154Z,25.20
2018-09-25T14:36:42.253Z,25.00
2018-09-25T14:39:16.203Z,25.20
2018-09-25T14:41:50.384Z,25.10
2018-09-25T14:44:25.304Z,25.30
2018-09-25T14:46:59.404Z,25.10
2018-09-25T14:49:33.775Z,25.50
2018-09-25T14:52:08.165Z,25.50
2018-09-25T14:54:42.477Z,25.10
2018-09-25T14:57:17.103Z,24.70
2018-09-25T14:59:51.212Z,25.10
2018-09-25T15:02:25.636Z,25.20
2018-09-25T15:04:59.869Z,25.20
2018-09-25T15:07:34.102Z,25.20
2018-09-25T15:10:08.150Z,25.00
2018-09-25T15:12:45.738Z,24.90
2018-09-25T15:15:19.940Z,25.00
2018-09-25T15:17:54.005Z,25.20
2018-09-25T15:20:28.250Z,25.10
2018-09-25T15:23:02.394Z,24.90
2018-09-25T15:25:36.597Z,24.90
2018-09-25T15:28:10.809Z,24.80
2018-09-25T15:30:44.826Z,24.50
2018-09-25T15:33:29.052Z,24.40
2018-09-25T15:36:03.204Z,24.20
2018-09-25T15:38:38.102Z,23.90
2018-09-25T15:41:12.528Z,23.50
2018-09-25T15:43:46.612Z,23.30
2018-09-25T15:46:20.743Z,23.10
2018-09-25T15:49:16.003Z,22.90
2018-09-25T15:51:53.064Z,22.50
2018-09-25T15:54:27.261Z,22.40
2018-09-25T15:57:01.345Z,22.20
2018-09-25T15:59:35.286Z,22.00
2018-09-25T16:02:19.927Z,21.80
2018-09-25T16:04:54.007Z,21.70
2018-09-25T16:07:27.950Z,21.50
2018-09-25T16:10:02.165Z,21.30
2018-09-25T16:12:48.371Z,21.10
2018-09-25T16:15:22.408Z,21.00
2018-09-25T16:17:56.701Z,20.80
2018-09-25T16:20:30.794Z,20.60
2018-09-25T16:23:04.883Z,20.50
2018-09-25T16:25:38.978Z,20.40
2018-09-25T16:28:18.436Z,20.20
2018-09-25T16:30:52.373Z,20.10
2018-09-25T16:33:26.415Z,20.00
2018-09-25T16:36:00.372Z,19.90
2018-09-25T16:38:50.906Z,19.80
2018-09-25T16:41:25.109Z,19.70
2018-09-25T16:43:59.291Z,19.70
2018-09-25T16:46:40.715Z,19.60
2018-09-25T16:49:14.832Z,19.50
2018-09-25T16:51:48.949Z,19.40
2018-09-25T16:54:23.356Z,19.30
2018-09-25T16:57:10.016Z,19.20
2018-09-25T16:59:44.368Z,19.10
2018-09-25T17:02:18.273Z,19.00
2018-09-25T17:04:52.672Z,18.90
2018-09-25T17:07:26.623Z,18.70
2018-09-25T17:10:00.633Z,18.60
2018-09-25T17:12:34.795Z,18.50
2018-09-25T17:15:20.749Z,18.40
2018-09-25T17:17:54.865Z,18.30
2018-09-25T17:20:29.133Z,18.10
2018-09-25T17:23:03.415Z,18.00
2018-09-25T17:25:37.489Z,17.90
2018-09-25T17:28:11.786Z,17.70
2018-09-25T17:30:47.887Z,17.60
2018-09-25T17:33:25.285Z,17.50
2018-09-25T17:35:59.273Z,17.40
2018-09-25T17:38:33.605Z,17.30
2018-09-25T17:41:07.882Z,17.20
2018-09-25T17:43:42.249Z,17.00
2018-09-25T17:46:16.240Z,16.90
2018-09-25T17:48:50.323Z,16.90
2018-09-25T17:51:24.577Z,16.70
2018-09-25T17:53:58.482Z,16.60
2018-09-25T17:56:32.503Z,16.50
2018-09-25T17:59:06.514Z,16.40
2018-09-25T18:01:41.050Z,16.30
2018-09-25T18:04:15.074Z,16.20
2018-09-25T18:06:54.185Z,16.10
2018-09-25T18:09:28.168Z,16.00
2018-09-25T18:12:02.198Z,15.90
2018-09-25T18:14:50.647Z,15.80
2018-09-25T18:17:24.609Z,15.70
2018-09-25T18:19:58.813Z,15.60
2018-09-25T18:22:49.028Z,15.50
2018-09-25T18:25:26.360Z,15.40
2018-09-25T18:28:00.452Z,15.40
2018-09-25T18:30:45.537Z,15.30
2018-09-25T18:33:19.899Z,15.20
2018-09-25T18:35:54.103Z,15.10
2018-09-25T18:38:29.314Z,15.00
2018-09-25T18:41:04.025Z,14.90
2018-09-25T18:43:38.953Z,14.80
2018-09-25T18:46:43.535Z,14.70
2018-09-25T18:49:26.737Z,14.60
2018-09-25T18:52:01.663Z,14.50
2018-09-25T18:54:39.013Z,14.50
2018-09-25T18:57:13.654Z,14.40
2018-09-25T18:59:48.452Z,14.30
2018-09-25T19:02:22.885Z,14.20
2018-09-25T19:05:05.592Z,14.10
2018-09-25T19:07:40.380Z,14.00
2018-09-25T19:10:15.290Z,14.00
2018-09-25T19:12:49.887Z,13.90
2018-09-25T19:15:24.895Z,13.80
2018-09-25T19:17:59.737Z,13.80
2018-09-25T19:20:34.479Z,13.70
2018-09-25T19:23:14.271Z,13.70
2018-09-25T19:25:48.268Z,13.60
2018-09-25T19:28:22.521Z,13.50
2018-09-25T19:30:56.578Z,13.50
2018-09-25T19:33:30.677Z,13.40
2018-09-25T19:36:05.763Z,13.30
2018-09-25T19:38:39.980Z,13.30
2018-09-25T19:41:14.001Z,13.20
2018-09-25T19:44:02.022Z,13.20
2018-09-25T19:46:35.790Z,13.10
2018-09-25T19:49:09.950Z,13.00
2018-09-25T19:51:51.640Z,13.00
2018-09-25T19:54:26.368Z,13.00
2018-09-25T19:57:00.480Z,12.90
2018-09-25T19:59:34.666Z,12.90
2018-09-25T20:02:08.913Z,12.80
2018-09-25T20:04:43.141Z,12.80
2018-09-25T20:07:17.000Z,12.70
2018-09-25T20:09:51.173Z,12.60
2018-09-25T20:12:25.220Z,12.50
2018-09-25T20:15:06.447Z,12.50
2018-09-25T20:17:40.597Z,12.50
2018-09-25T20:20:21.678Z,12.40
2018-09-25T20:22:55.766Z,12.40
2018-09-25T20:25:30.180Z,12.30
2018-09-25T20:28:04.490Z,12.30
2018-09-25T20:30:38.502Z,12.20
2018-09-25T20:33:12.832Z,12.20
2018-09-25T20:35:46.972Z,12.10
2018-09-25T20:38:21.057Z,12.10
2018-09-25T20:40:54.941Z,12.00
2018-09-25T20:43:28.901Z,12.10
2018-09-25T20:46:03.176Z,12.10
2018-09-25T20:48:51.851Z,12.00
2018-09-25T20:51:25.849Z,11.90
2018-09-25T20:53:59.962Z,11.80
2018-09-25T20:56:34.060Z,11.80
2018-09-25T20:59:08.093Z,11.80
2018-09-25T21:01:42.258Z,11.70
2018-09-25T21:04:16.317Z,11.70
2018-09-25T21:06:50.634Z,11.70
2018-09-25T21:09:24.857Z,11.70
2018-09-25T21:11:59.067Z,11.60
2018-09-25T21:14:32.872Z,11.60
2018-09-25T21:17:06.813Z,11.50
2018-09-25T21:19:47.330Z,11.50
2018-09-25T21:22:21.243Z,11.40
2018-09-25T21:24:55.779Z,11.40
2018-09-25T21:27:30.099Z,11.40
2018-09-25T21:30:04.135Z,11.40
2018-09-25T21:32:38.036Z,11.30
2018-09-25T21:35:12.227Z,11.30
2018-09-25T21:37:46.293Z,11.20
2018-09-25T21:40:20.790Z,11.20
2018-09-25T21:42:54.882Z,11.20
2018-09-25T21:45:28.964Z,11.20
2018-09-25T21:48:03.296Z,11.10
2018-09-25T21:50:37.531Z,11.10
2018-09-25T21:53:11.410Z,11.00
2018-09-25T21:55:45.768Z,11.00
2018-09-25T21:58:19.539Z,11.00
2018-09-25T22:00:53.780Z,10.90
2018-09-25T22:03:27.752Z,10.90
2018-09-25T22:06:01.702Z,10.90
2018-09-25T22:08:45.559Z,10.90
2018-09-25T22:11:19.524Z,10.80
2018-09-25T22:13:53.738Z,10.80
2018-09-25T22:16:28.001Z,10.80
2018-09-25T22:19:02.239Z,10.70
2018-09-25T22:21:36.496Z,10.70
2018-09-25T22:24:10.670Z,10.70
2018-09-25T22:26:55.605Z,10.70
2018-09-25T22:29:29.631Z,10.70
2018-09-25T22:32:03.935Z,10.70
2018-09-25T22:34:37.800Z,10.60
2018-09-25T22:37:11.731Z,10.60
2018-09-25T22:39:45.782Z,10.60
2018-09-25T22:42:19.779Z,10.50
2018-09-25T22:44:53.748Z,10.50
2018-09-25T22:47:42.144Z,10.50
2018-09-25T22:50:16.247Z,10.50
2018-09-25T22:52:50.206Z,10.50
2018-09-25T22:55:24.284Z,10.50
2018-09-25T22:57:58.286Z,10.40
2018-09-25T23:00:32.189Z,10.40
2018-09-25T23:03:06.293Z,10.40
2018-09-25T23:05:40.444Z,10.40
2018-09-25T23:08:14.857Z,10.30
2018-09-25T23:10:48.664Z,10.30
2018-09-25T23:13:22.686Z,10.20
2018-09-25T23:15:56.753Z,10.20
2018-09-25T23:18:30.559Z,10.20
2018-09-25T23:21:05.204Z,10.20
2018-09-25T23:23:39.175Z,10.20
2018-09-25T23:26:13.182Z,10.20
2018-09-25T23:28:47.205Z,10.20
2018-09-25T23:31:21.246Z,10.10
2018-09-25T23:33:55.275Z,10.10
2018-09-25T23:36:29.291Z,10.10
2018-09-25T23:39:02.317Z,10.10
2018-09-25T23:41:37.513Z,10.00
2018-09-25T23:44:12.342Z,10.00
2018-09-25T23:46:47.592Z,10.00
2018-09-25T23:49:23.728Z,10.00
2018-09-25T23:51:58.541Z,10.00
2018-09-25T23:54:36.411Z,10.00
2018-09-25T23:57:12.583Z,10.00
2018-09-25T23:59:46.546Z,9.90
